Rankin, Michigan
Current Conditions -  °F | °C
As of 1:53 PM on Friday 28 Nov 2014 (Local Time) from KFNT Reporting Station
Overcast Overcast  
Wind Chill: 21°   Ceiling: 10000
Heat Index: 28°   Visibility: 10mi
Dew Point: 14°   Wind: 7mph
Humidity: 56%   Direction: 200°SSW
Pressure: 30.2"   Gusts: NA
Location:  42.9382°N, 83.8244°W
Report Text: KFNT 281853Z 20006KT 10SM FEW032 SCT047 OVC100 M02/M10 A3020 RMK AO2 SLP239 T10221100
Loading
Personal Weather Stations






























Interactive Weather Map New forecast layout! Learn more

10-Day Weather Forecast

Advertisements
Track Severe Weather on mobile